Time;durP1;ratioP1;P1;durP2;ratioP2;P2;SDS_P1;SDS_P2;PMS_P1;PMS_P2;Temp;Humidity;BMP_temperature;BMP_pressure;BME280_temperature;BME280_humidity;BME280_pressure;Samples;Min_cycle;Max_cycle;Signal;HPM_P1;HPM_P2
2023/11/28 00:00:34;;;;;;;;;;;;;;;-2.78;76.28;97180.41;5066468;28;19928;-77
2023/11/28 00:03:00;;;;;;;;;;;;;;;-2.82;76.42;97184.63;5045361;28;19928;-76
2023/11/28 00:05:26;;;;;;;;;;;;;;;-2.86;75.97;97183.53;5063067;28;20023;-77
2023/11/28 00:07:53;;;;;;;;;;;;;;;-2.87;76.50;97196.09;5062650;28;20447;-77
2023/11/28 00:10:19;;;;;;;;;;;;;;;-2.88;75.40;97201.69;5063635;28;20223;-77
2023/11/28 00:12:45;;;;;;;;;;;;;;;-2.93;76.26;97189.06;5047690;28;19934;-76
2023/11/28 00:15:11;;;;;;;;;;;;;;;-2.90;76.72;97193.13;5065065;28;20395;-76
2023/11/28 00:17:37;;;;;;;;;;;;;;;-2.86;76.74;97202.25;5062765;28;20316;-76
2023/11/28 00:20:03;;;;;;;;;;;;;;;-2.85;76.32;97217.22;5056688;28;19932;-76
2023/11/28 00:22:29;;;;;;;;;;;;;;;-2.79;76.67;97215.41;5063334;28;19929;-76
2023/11/28 00:24:57;;;;;;;;;;;;;;;-2.80;76.04;97219.16;5047610;28;19929;-76
2023/11/28 00:27:23;;;;;;;;;;;;;;;-2.84;75.72;97224.19;5061654;28;20461;-76
2023/11/28 00:29:49;;;;;;;;;;;;;;;-2.89;76.11;97218.78;5065805;28;19968;-76
2023/11/28 00:32:15;;;;;;;;;;;;;;;-2.91;76.37;97235.09;5028674;28;19929;-76
2023/11/28 00:34:41;;;;;;;;;;;;;;;-2.89;75.60;97229.50;5065291;28;19935;-77
2023/11/28 00:37:08;;;;;;;;;;;;;;;-2.95;76.77;97244.66;5060835;28;20250;-76
2023/11/28 00:39:35;;;;;;;;;;;;;;;-2.94;77.02;97240.16;5061331;28;19986;-76
2023/11/28 00:42:05;;;;;;;;;;;;;;;-2.92;77.15;97238.03;5065457;28;19928;-76
2023/11/28 00:44:31;;;;;;;;;;;;;;;-2.94;77.15;97246.28;5056744;28;20046;-77
2023/11/28 00:47:00;;;;;;;;;;;;;;;-2.94;77.62;97250.84;5045211;28;19932;-76
2023/11/28 00:49:26;;;;;;;;;;;;;;;-2.96;77.01;97250.28;5063196;28;19928;-76
2023/11/28 00:51:53;;;;;;;;;;;;;;;-3.02;77.50;97258.22;5061285;28;19928;-76
2023/11/28 00:54:19;;;;;;;;;;;;;;;-3.04;77.41;97273.72;5061761;28;19932;-76
2023/11/28 00:56:45;;;;;;;;;;;;;;;-3.03;77.44;97269.19;5063567;28;19935;-76
2023/11/28 00:59:12;;;;;;;;;;;;;;;-3.04;77.03;97275.59;5061940;28;19935;-76
2023/11/28 01:01:38;;;;;;;;;;;;;;;-3.02;76.43;97290.31;5064325;28;20361;-76
2023/11/28 01:04:04;;;;;;;;;;;;;;;-3.08;75.13;97288.66;5062246;28;19933;-76
2023/11/28 01:06:31;;;;;;;;;;;;;;;-3.11;74.81;97318.56;5062800;28;19955;-76
2023/11/28 01:08:57;;;;;;;;;;;;;;;-3.19;74.60;97295.72;5062652;28;20030;-76
2023/11/28 01:11:23;;;;;;;;;;;;;;;-3.21;75.36;97302.38;5044904;28;19994;-76
2023/11/28 01:13:49;;;;;;;;;;;;;;;-3.21;75.46;97297.03;5061377;28;20095;-76
2023/11/28 01:16:17;;;;;;;;;;;;;;;-3.21;75.62;97289.78;5063130;28;20166;-76
2023/11/28 01:18:44;;;;;;;;;;;;;;;-3.20;75.51;97293.28;5043176;28;19955;-76
2023/11/28 01:21:10;;;;;;;;;;;;;;;-3.22;75.57;97301.53;5060005;28;19990;-75
2023/11/28 01:23:36;;;;;;;;;;;;;;;-3.22;75.27;97324.81;5061624;28;20427;-76
2023/11/28 01:26:02;;;;;;;;;;;;;;;-3.30;75.66;97323.34;5042693;28;19928;-76
2023/11/28 01:28:28;;;;;;;;;;;;;;;-3.35;76.13;97316.06;5060164;28;19929;-76
2023/11/28 01:30:55;;;;;;;;;;;;;;;-3.36;76.92;97335.00;5061407;28;20094;-76
2023/11/28 01:33:23;;;;;;;;;;;;;;;-3.38;77.58;97345.13;5060559;28;19982;-75
2023/11/28 01:35:49;;;;;;;;;;;;;;;-3.44;78.07;97344.25;5061915;28;19928;-76
2023/11/28 01:38:15;;;;;;;;;;;;;;;-3.47;79.21;97340.22;5060139;28;19928;-75
2023/11/28 01:40:41;;;;;;;;;;;;;;;-3.45;79.54;97342.63;5061289;28;19928;-76
2023/11/28 01:43:07;;;;;;;;;;;;;;;-3.38;80.11;97358.50;5040778;28;19972;-76
2023/11/28 01:45:33;;;;;;;;;;;;;;;-3.32;80.17;97355.66;5060473;28;19984;-76
2023/11/28 01:47:59;;;;;;;;;;;;;;;-3.24;80.24;97350.97;5027356;28;19928;-76
2023/11/28 01:50:30;;;;;;;;;;;;;;;-3.21;80.22;97356.63;5061638;28;20448;-77
2023/11/28 01:52:55;;;;;;;;;;;;;;;-3.26;80.72;97369.13;5059351;28;19932;-76
2023/11/28 01:55:21;;;;;;;;;;;;;;;-3.30;81.63;97374.94;5061506;28;20399;-76
2023/11/28 01:57:48;;;;;;;;;;;;;;;-3.32;81.68;97381.59;5062546;28;19932;-76
2023/11/28 02:00:15;;;;;;;;;;;;;;;-3.34;81.99;97384.50;5044142;28;19932;-76
2023/11/28 02:02:41;;;;;;;;;;;;;;;-3.26;82.04;97390.50;5045132;28;20386;-76
2023/11/28 02:05:07;;;;;;;;;;;;;;;-3.18;82.01;97390.09;5062117;28;20210;-77
2023/11/28 02:07:34;;;;;;;;;;;;;;;-3.16;81.82;97398.66;5043028;28;19994;-76
2023/11/28 02:10:00;;;;;;;;;;;;;;;-3.13;81.47;97393.66;5022579;28;19976;-76
2023/11/28 02:12:27;;;;;;;;;;;;;;;-3.10;81.29;97394.22;5060782;28;19936;-76
2023/11/28 02:14:53;;;;;;;;;;;;;;;-3.16;80.50;97407.50;5058848;28;19928;-76
2023/11/28 02:17:19;;;;;;;;;;;;;;;-3.22;80.96;97405.00;5060402;28;20206;-76
2023/11/28 02:19:47;;;;;;;;;;;;;;;-3.27;81.33;97413.75;5043025;28;20355;-76
2023/11/28 02:22:34;;;;;;;;;;;;;;;-3.36;81.90;97415.19;5048060;28;19933;-76
2023/11/28 02:25:01;;;;;;;;;;;;;;;-3.39;82.55;97415.69;5061633;28;19960;-76
2023/11/28 02:27:30;;;;;;;;;;;;;;;-3.35;83.09;97411.50;5058715;28;19928;-75
2023/11/28 02:29:56;;;;;;;;;;;;;;;-3.37;83.33;97429.59;5061653;28;20387;-76
2023/11/28 02:32:22;;;;;;;;;;;;;;;-3.47;83.76;97422.22;5063390;28;19974;-75
2023/11/28 02:34:48;;;;;;;;;;;;;;;-3.50;84.43;97430.75;5062328;28;19936;-76
2023/11/28 02:37:14;;;;;;;;;;;;;;;-3.58;85.02;97440.78;5059842;28;19928;-76
2023/11/28 02:39:40;;;;;;;;;;;;;;;-3.53;85.54;97439.25;5060851;28;20226;-75
2023/11/28 02:42:06;;;;;;;;;;;;;;;-3.52;85.92;97444.31;5059544;28;19950;-75
2023/11/28 02:44:33;;;;;;;;;;;;;;;-3.50;85.98;97452.94;5062348;28;19975;-74
2023/11/28 02:46:59;;;;;;;;;;;;;;;-3.56;86.42;97441.34;5044661;28;19928;-75
2023/11/28 02:49:25;;;;;;;;;;;;;;;-3.56;86.89;97454.72;5060975;28;19951;-75
2023/11/28 02:51:51;;;;;;;;;;;;;;;-3.63;87.34;97456.69;5062010;28;20449;-75
2023/11/28 02:54:17;;;;;;;;;;;;;;;-3.63;87.97;97455.91;5062627;28;19975;-75
2023/11/28 02:56:46;;;;;;;;;;;;;;;-3.68;88.11;97478.00;5061811;28;20375;-75
2023/11/28 02:59:11;;;;;;;;;;;;;;;-3.72;88.40;97458.16;5065551;28;19974;-75
2023/11/28 03:01:39;;;;;;;;;;;;;;;-3.69;88.30;97468.34;5047130;28;19932;-75
2023/11/28 03:04:05;;;;;;;;;;;;;;;-3.77;88.35;97468.72;5067191;28;19976;-76
2023/11/28 03:06:31;;;;;;;;;;;;;;;-3.80;88.12;97482.56;5067692;28;20312;-76
2023/11/28 03:08:56;;;;;;;;;;;;;;;-3.82;88.47;97487.34;5048181;28;19982;-76
2023/11/28 03:11:23;;;;;;;;;;;;;;;-3.81;88.14;97481.78;5064701;28;19928;-76
2023/11/28 03:13:49;;;;;;;;;;;;;;;-3.76;88.42;97484.53;5065122;28;20014;-75
2023/11/28 03:16:15;;;;;;;;;;;;;;;-3.70;88.16;97472.09;5047451;28;20450;-76
2023/11/28 03:18:42;;;;;;;;;;;;;;;-3.66;87.92;97481.22;5063235;28;19942;-76
2023/11/28 03:21:09;;;;;;;;;;;;;;;-3.68;87.75;97488.69;5063964;28;20015;-76
2023/11/28 03:23:35;;;;;;;;;;;;;;;-3.61;87.66;97493.88;5066943;28;19928;-76
2023/11/28 03:26:00;;;;;;;;;;;;;;;-3.56;87.66;97492.13;5065673;28;19928;-75
2023/11/28 03:28:26;;;;;;;;;;;;;;;-3.51;87.27;97496.75;5061591;28;20453;-75
2023/11/28 03:30:52;;;;;;;;;;;;;;;-3.43;87.16;97501.69;5064791;28;19970;-75
2023/11/28 03:33:18;;;;;;;;;;;;;;;-3.38;86.91;97516.19;5062502;28;20054;-76
2023/11/28 03:35:46;;;;;;;;;;;;;;;-3.37;86.46;97520.47;5061501;28;19995;-75
2023/11/28 03:38:12;;;;;;;;;;;;;;;-3.36;86.28;97512.22;5063278;28;19929;-76
2023/11/28 03:40:38;;;;;;;;;;;;;;;-3.49;87.15;97518.69;5064861;28;19951;-75
2023/11/28 03:43:04;;;;;;;;;;;;;;;-3.50;88.10;97534.94;5066557;28;20395;-76
2023/11/28 03:45:30;;;;;;;;;;;;;;;-3.51;88.63;97549.34;5065220;28;19974;-76
2023/11/28 03:47:57;;;;;;;;;;;;;;;-3.53;88.76;97548.78;5065588;28;19928;-76
2023/11/28 03:50:23;;;;;;;;;;;;;;;-3.59;88.85;97551.38;5044416;28;19929;-76
2023/11/28 03:52:50;;;;;;;;;;;;;;;-3.59;89.27;97548.69;5065398;28;20307;-76
2023/11/28 03:55:17;;;;;;;;;;;;;;;-3.59;89.14;97553.22;5064246;28;19929;-76
2023/11/28 03:57:43;;;;;;;;;;;;;;;-3.64;88.63;97563.81;5047781;28;19960;-76
2023/11/28 04:00:10;;;;;;;;;;;;;;;-3.76;88.74;97580.69;5047137;28;19936;-76
2023/11/28 04:02:37;;;;;;;;;;;;;;;-3.98;88.28;97580.50;5061090;28;19932;-76
2023/11/28 04:05:04;;;;;;;;;;;;;;;-4.00;87.41;97593.28;5061515;28;19928;-76
2023/11/28 04:07:30;;;;;;;;;;;;;;;-4.13;86.38;97613.03;5060626;28;20011;-75
2023/11/28 04:09:58;;;;;;;;;;;;;;;-4.31;88.71;97592.59;5063144;28;20019;-75
2023/11/28 04:12:24;;;;;;;;;;;;;;;-4.34;89.24;97612.53;5065198;28;19936;-75
2023/11/28 04:14:50;;;;;;;;;;;;;;;-4.33;89.17;97610.69;5063372;28;19928;-75
2023/11/28 04:17:17;;;;;;;;;;;;;;;-4.32;88.47;97610.44;5062239;28;20358;-76
2023/11/28 04:19:45;;;;;;;;;;;;;;;-4.28;88.41;97616.13;5044342;28;19928;-75
2023/11/28 04:22:11;;;;;;;;;;;;;;;-4.28;87.86;97621.47;5062756;28;19998;-75
2023/11/28 04:24:37;;;;;;;;;;;;;;;-4.25;88.03;97626.34;5043959;28;20407;-75
2023/11/28 04:27:06;;;;;;;;;;;;;;;-4.25;87.58;97645.03;5045019;28;20434;-75
2023/11/28 04:29:32;;;;;;;;;;;;;;;-4.25;86.62;97634.34;5042134;28;19944;-76
2023/11/28 04:31:58;;;;;;;;;;;;;;;-4.22;86.41;97636.56;5046489;28;19929;-75
2023/11/28 04:34:24;;;;;;;;;;;;;;;-4.20;86.57;97649.69;5062491;28;19943;-75
2023/11/28 04:36:50;;;;;;;;;;;;;;;-4.30;86.44;97635.03;5047070;28;19928;-75
2023/11/28 04:39:17;;;;;;;;;;;;;;;-4.15;86.11;97655.94;5060871;28;20298;-75
2023/11/28 04:41:47;;;;;;;;;;;;;;;-4.21;85.05;97654.22;5045723;28;19932;-75
2023/11/28 04:44:14;;;;;;;;;;;;;;;-4.21;84.94;97664.91;5045883;28;20605;-75
2023/11/28 04:46:40;;;;;;;;;;;;;;;-4.18;84.28;97669.75;5061035;28;19935;-76
2023/11/28 04:49:11;;;;;;;;;;;;;;;-4.17;83.66;97662.56;5058882;28;19928;-75
2023/11/28 04:51:37;;;;;;;;;;;;;;;-4.16;82.02;97685.53;5061754;28;20410;-75
2023/11/28 04:54:03;;;;;;;;;;;;;;;-4.19;80.54;97683.34;5062714;28;19972;-75
2023/11/28 04:56:29;;;;;;;;;;;;;;;-4.21;80.39;97669.41;5064063;28;20041;-75
2023/11/28 04:58:56;;;;;;;;;;;;;;;-4.22;79.69;97679.25;5065533;28;20248;-75
2023/11/28 05:01:24;;;;;;;;;;;;;;;-4.22;79.07;97687.25;5062804;28;19938;-76
2023/11/28 05:03:51;;;;;;;;;;;;;;;-4.23;79.00;97715.00;5063388;28;19958;-76
2023/11/28 05:06:17;;;;;;;;;;;;;;;-4.25;79.37;97681.59;5047568;28;20410;-76
2023/11/28 05:08:44;;;;;;;;;;;;;;;-4.23;78.64;97700.84;5061940;28;20039;-76
2023/11/28 05:11:10;;;;;;;;;;;;;;;-4.24;78.38;97726.72;5063118;28;20019;-75
2023/11/28 05:13:36;;;;;;;;;;;;;;;-4.27;78.96;97706.66;5029419;28;19929;-75
2023/11/28 05:16:03;;;;;;;;;;;;;;;-4.32;79.13;97724.41;5063821;28;19928;-76
2023/11/28 05:18:30;;;;;;;;;;;;;;;-4.32;79.02;97724.41;5029953;28;19955;-77
2023/11/28 05:20:56;;;;;;;;;;;;;;;-4.31;79.40;97739.38;5061935;28;19951;-76
2023/11/28 05:23:22;;;;;;;;;;;;;;;-4.31;79.05;97739.38;5062477;28;20395;-77
2023/11/28 05:25:49;;;;;;;;;;;;;;;-4.31;79.12;97758.06;5063212;28;19928;-77
2023/11/28 05:28:15;;;;;;;;;;;;;;;-4.33;78.89;97763.59;5058923;28;19981;-78
2023/11/28 05:30:42;;;;;;;;;;;;;;;-4.37;79.30;97756.28;5060678;28;19928;-77
2023/11/28 05:33:08;;;;;;;;;;;;;;;-4.40;79.71;97762.91;5063329;28;20023;-77
2023/11/28 05:35:35;;;;;;;;;;;;;;;-4.45;79.87;97754.75;5062855;28;20027;-77
2023/11/28 05:38:01;;;;;;;;;;;;;;;-4.49;80.75;97773.09;5033991;28;19928;-78
2023/11/28 05:40:27;;;;;;;;;;;;;;;-4.44;80.75;97780.41;5014338;28;19932;-77
2023/11/28 05:42:53;;;;;;;;;;;;;;;-4.45;80.82;97797.44;5036212;28;20431;-77
2023/11/28 05:45:20;;;;;;;;;;;;;;;-4.46;81.54;97793.97;5053390;28;19928;-77
2023/11/28 05:47:47;;;;;;;;;;;;;;;-4.45;81.08;97798.25;5021809;28;20461;-76
2023/11/28 05:50:12;;;;;;;;;;;;;;;-4.50;80.92;97787.47;5036818;28;19929;-76
2023/11/28 05:52:40;;;;;;;;;;;;;;;-4.52;81.11;97799.38;5053926;28;19928;-76
2023/11/28 05:55:07;;;;;;;;;;;;;;;-4.51;80.70;97817.84;5061642;28;19960;-76
2023/11/28 05:57:35;;;;;;;;;;;;;;;-4.51;80.07;97793.84;5065029;28;20391;-78
2023/11/28 06:00:01;;;;;;;;;;;;;;;-4.48;79.18;97800.56;5029973;28;19966;-78
2023/11/28 06:02:27;;;;;;;;;;;;;;;-4.53;79.71;97803.91;5063571;28;20023;-78
2023/11/28 06:04:53;;;;;;;;;;;;;;;-4.51;79.93;97812.50;5062612;28;20036;-78
2023/11/28 06:07:19;;;;;;;;;;;;;;;-4.49;80.18;97813.09;5031179;28;19929;-78
2023/11/28 06:09:46;;;;;;;;;;;;;;;-4.47;80.42;97819.03;5061664;28;19932;-78
2023/11/28 06:12:13;;;;;;;;;;;;;;;-4.45;80.38;97819.59;5045428;28;19928;-77
2023/11/28 06:14:39;;;;;;;;;;;;;;;-4.47;80.47;97834.19;5063995;28;19939;-77
2023/11/28 06:17:05;;;;;;;;;;;;;;;-4.47;80.46;97839.53;5030496;28;19940;-78
2023/11/28 06:19:32;;;;;;;;;;;;;;;-4.44;80.29;97841.78;5063397;28;20210;-78
2023/11/28 06:21:58;;;;;;;;;;;;;;;-4.46;80.04;97862.50;5059642;28;20357;-78
2023/11/28 06:24:25;;;;;;;;;;;;;;;-4.46;79.47;97862.50;5044686;28;19932;-77
2023/11/28 06:26:52;;;;;;;;;;;;;;;-4.46;79.44;97867.84;5063092;28;20676;-77
2023/11/28 06:29:18;;;;;;;;;;;;;;;-4.48;78.66;97853.91;5063961;28;19928;-77
2023/11/28 06:31:45;;;;;;;;;;;;;;;-4.49;78.41;97869.13;5066683;28;19929;-78
2023/11/28 06:34:11;;;;;;;;;;;;;;;-4.46;77.49;97883.84;5032402;28;19929;-76
2023/11/28 06:36:37;;;;;;;;;;;;;;;-4.47;77.70;97893.72;5061004;28;20076;-76
2023/11/28 06:39:03;;;;;;;;;;;;;;;-4.42;78.05;97885.84;5059235;28;19928;-77
2023/11/28 06:41:30;;;;;;;;;;;;;;;-4.39;77.48;97889.94;5053743;28;19967;-78
2023/11/28 06:43:58;;;;;;;;;;;;;;;-4.39;77.09;97907.78;5066419;28;19935;-77
2023/11/28 06:46:25;;;;;;;;;;;;;;;-4.45;77.44;97918.34;5066538;28;19928;-76
2023/11/28 06:48:51;;;;;;;;;;;;;;;-4.50;77.89;97915.53;5065672;28;19928;-77
2023/11/28 06:51:17;;;;;;;;;;;;;;;-4.51;78.19;97932.56;5068594;28;19989;-79
2023/11/28 06:53:43;;;;;;;;;;;;;;;-4.49;78.15;97919.00;5063799;28;19928;-76
2023/11/28 06:56:10;;;;;;;;;;;;;;;-4.46;77.75;97926.56;5067451;28;19935;-76
2023/11/28 06:58:36;;;;;;;;;;;;;;;-4.49;78.20;97943.84;5072868;28;19940;-76
2023/11/28 07:01:03;;;;;;;;;;;;;;;-4.47;78.23;97946.25;5073862;28;19974;-77
2023/11/28 07:03:31;;;;;;;;;;;;;;;-4.47;77.91;97927.59;5084032;28;19995;-77
2023/11/28 07:05:57;;;;;;;;;;;;;;;-4.46;78.32;97939.88;5062216;28;20198;-77
2023/11/28 07:08:23;;;;;;;;;;;;;;;-4.47;78.58;97963.09;5063396;28;19928;-76
2023/11/28 07:10:49;;;;;;;;;;;;;;;-4.51;79.34;97937.91;5066666;28;19928;-77
2023/11/28 07:13:15;;;;;;;;;;;;;;;-4.49;79.51;97956.34;5064298;28;19935;-77
2023/11/28 07:15:41;;;;;;;;;;;;;;;-4.49;79.67;97957.19;5063751;28;19936;-77
2023/11/28 07:18:09;;;;;;;;;;;;;;;-4.48;79.82;97966.81;5063488;28;20380;-77
2023/11/28 07:20:35;;;;;;;;;;;;;;;-4.51;80.05;97963.75;5067765;28;20014;-76
2023/11/28 07:23:02;;;;;;;;;;;;;;;-4.50;80.08;97976.06;5061231;28;20003;-77
2023/11/28 07:25:29;;;;;;;;;;;;;;;-4.56;79.79;97991.94;5064890;28;20397;-83
2023/11/28 07:27:55;;;;;;;;;;;;;;;-4.57;80.10;97992.13;5049177;28;20008;-78
2023/11/28 07:30:21;;;;;;;;;;;;;;;-4.56;79.87;97985.75;5065366;28;19928;-77
2023/11/28 07:32:47;;;;;;;;;;;;;;;-4.59;80.06;97987.03;5064348;28;19928;-78
2023/11/28 07:35:15;;;;;;;;;;;;;;;-4.58;80.54;97995.84;5064467;28;19939;-76
2023/11/28 07:37:41;;;;;;;;;;;;;;;-4.55;80.26;98000.72;5061500;28;19928;-76
2023/11/28 07:40:08;;;;;;;;;;;;;;;-4.60;80.35;97996.09;5064473;28;19964;-76
2023/11/28 07:42:34;;;;;;;;;;;;;;;-4.53;80.36;98011.19;5064021;28;19935;-77
2023/11/28 07:45:01;;;;;;;;;;;;;;;-4.51;80.48;98009.13;5044992;28;20469;-77
2023/11/28 07:47:29;;;;;;;;;;;;;;;-4.48;80.45;98032.69;5062439;28;19929;-76
2023/11/28 07:49:55;;;;;;;;;;;;;;;-4.52;80.27;98029.66;5065034;28;19935;-78
2023/11/28 07:52:22;;;;;;;;;;;;;;;-4.51;80.08;98023.28;5064518;28;19928;-76
2023/11/28 07:54:48;;;;;;;;;;;;;;;-4.47;79.56;98028.97;5064467;28;19928;-76
2023/11/28 07:57:14;;;;;;;;;;;;;;;-4.46;77.71;98028.78;5062916;28;19939;-77
2023/11/28 07:59:46;;;;;;;;;;;;;;;-4.61;78.40;98062.97;5047505;28;19951;-76
2023/11/28 08:02:12;;;;;;;;;;;;;;;-4.61;77.43;98046.97;5036890;28;19928;-76
2023/11/28 08:04:38;;;;;;;;;;;;;;;-4.60;77.51;98056.59;5052284;28;19929;-76
2023/11/28 08:07:04;;;;;;;;;;;;;;;-4.53;77.24;98067.22;5057726;28;20081;-76
2023/11/28 08:09:32;;;;;;;;;;;;;;;-4.52;77.04;98060.84;5055853;28;19929;-76
2023/11/28 08:11:58;;;;;;;;;;;;;;;-4.56;76.67;98053.28;5039385;28;19928;-78
2023/11/28 08:14:24;;;;;;;;;;;;;;;-4.55;76.75;98054.09;5063586;28;20311;-77
2023/11/28 08:16:50;;;;;;;;;;;;;;;-4.50;76.61;98053.44;5061655;28;19936;-76
2023/11/28 08:19:16;;;;;;;;;;;;;;;-4.49;76.11;98061.25;5058462;28;19936;-78
2023/11/28 08:21:42;;;;;;;;;;;;;;;-4.53;76.03;98078.69;5031342;28;19928;-78
2023/11/28 08:24:08;;;;;;;;;;;;;;;-4.54;76.02;98081.59;5031359;28;19955;-78
2023/11/28 08:26:35;;;;;;;;;;;;;;;-4.57;75.95;98102.34;5049048;28;19929;-77
2023/11/28 08:29:01;;;;;;;;;;;;;;;-4.58;75.90;98094.56;5049738;28;19952;-78
2023/11/28 08:31:27;;;;;;;;;;;;;;;-4.61;76.34;98092.31;5045748;28;20310;-78
2023/11/28 08:33:53;;;;;;;;;;;;;;;-4.58;76.64;98092.72;5044778;28;19933;-78
2023/11/28 08:36:19;;;;;;;;;;;;;;;-4.50;76.43;98096.97;5053057;28;20101;-77
2023/11/28 08:38:45;;;;;;;;;;;;;;;-4.50;76.30;98134.31;5064790;28;19943;-79
2023/11/28 08:41:11;;;;;;;;;;;;;;;-4.52;75.98;98151.56;5063545;28;20023;-77
2023/11/28 08:43:39;;;;;;;;;;;;;;;-4.53;76.19;98129.38;5063518;28;20388;-77
2023/11/28 08:46:05;;;;;;;;;;;;;;;-4.57;76.79;98106.84;5062260;28;20031;-78
2023/11/28 08:48:31;;;;;;;;;;;;;;;-4.48;77.05;98120.75;5040482;28;19928;-78
2023/11/28 08:50:57;;;;;;;;;;;;;;;-4.41;77.12;98124.19;5066863;28;20027;-78
2023/11/28 08:53:23;;;;;;;;;;;;;;;-4.41;76.62;98132.19;5068339;28;19928;-78
2023/11/28 08:55:49;;;;;;;;;;;;;;;-4.40;76.76;98136.50;5064588;28;19928;-78
2023/11/28 08:58:15;;;;;;;;;;;;;;;-4.45;76.78;98129.13;5063072;28;20272;-78
2023/11/28 09:00:43;;;;;;;;;;;;;;;-4.42;77.14;98134.03;5063465;28;19928;-78
2023/11/28 09:03:09;;;;;;;;;;;;;;;-4.31;77.08;98132.50;5062949;28;19928;-78
2023/11/28 09:05:34;;;;;;;;;;;;;;;-4.26;76.52;98137.19;5062733;28;19990;-77
2023/11/28 09:08:00;;;;;;;;;;;;;;;-4.30;75.56;98165.34;5062990;28;19974;-77
2023/11/28 09:10:26;;;;;;;;;;;;;;;-4.36;75.44;98176.91;5064144;28;19935;-77
2023/11/28 09:12:52;;;;;;;;;;;;;;;-4.36;75.67;98168.91;5061994;28;19928;-77
2023/11/28 09:15:18;;;;;;;;;;;;;;;-4.31;75.41;98177.06;5066366;28;20028;-77
2023/11/28 09:17:45;;;;;;;;;;;;;;;-4.28;75.43;98157.94;5062996;28;20027;-76
2023/11/28 09:20:11;;;;;;;;;;;;;;;-4.28;75.07;98163.28;5065256;28;19928;-77
2023/11/28 09:22:37;;;;;;;;;;;;;;;-4.28;75.03;98168.63;5047055;28;19981;-77
2023/11/28 09:25:03;;;;;;;;;;;;;;;-4.17;74.54;98199.13;5049063;28;19929;-77
2023/11/28 09:27:29;;;;;;;;;;;;;;;-4.05;73.44;98185.91;5065550;28;19935;-77
2023/11/28 09:29:55;;;;;;;;;;;;;;;-3.91;73.34;98203.41;5063924;28;20042;-77
2023/11/28 09:32:21;;;;;;;;;;;;;;;-3.89;71.75;98195.19;5047512;28;20314;-77
2023/11/28 09:34:48;;;;;;;;;;;;;;;-4.04;71.57;98208.91;5062047;28;20312;-76
2023/11/28 09:37:14;;;;;;;;;;;;;;;-4.34;71.89;98174.84;5066309;28;20031;-77
2023/11/28 09:39:40;;;;;;;;;;;;;;;-4.27;72.64;98189.75;5064046;28;20233;-76
2023/11/28 09:42:10;;;;;;;;;;;;;;;-4.20;73.30;98200.41;5062835;28;20288;-77
2023/11/28 09:44:36;;;;;;;;;;;;;;;-4.22;72.70;98214.97;5063066;28;20422;-76
2023/11/28 09:47:06;;;;;;;;;;;;;;;-4.27;73.30;98220.97;5063157;28;20307;-76
2023/11/28 09:49:36;;;;;;;;;;;;;;;-4.21;73.92;98212.09;5066551;28;19928;-77
2023/11/28 09:52:05;;;;;;;;;;;;;;;-4.15;74.20;98210.41;5026619;28;19935;-76
2023/11/28 09:54:32;;;;;;;;;;;;;;;-4.13;73.88;98214.50;5043984;28;19935;-77
2023/11/28 09:57:02;;;;;;;;;;;;;;;-4.11;73.05;98254.34;5029386;28;19928;-78
2023/11/28 09:59:29;;;;;;;;;;;;;;;-4.09;73.34;98227.41;5063361;28;19997;-76
2023/11/28 10:01:56;;;;;;;;;;;;;;;-4.06;73.30;98248.31;5047305;28;19970;-76
2023/11/28 10:04:23;;;;;;;;;;;;;;;-4.04;73.61;98239.06;5063000;28;19928;-76
2023/11/28 10:06:52;;;;;;;;;;;;;;;-4.04;74.22;98241.75;5046162;28;19989;-76
2023/11/28 10:09:20;;;;;;;;;;;;;;;-4.07;74.49;98244.00;5047154;28;19978;-77
2023/11/28 10:11:47;;;;;;;;;;;;;;;-4.08;75.11;98255.72;5029880;28;19959;-76
2023/11/28 10:14:13;;;;;;;;;;;;;;;-4.14;74.80;98249.41;5062033;28;19935;-77
2023/11/28 10:16:42;;;;;;;;;;;;;;;-4.17;74.75;98252.50;5062838;28;20157;-76
2023/11/28 10:19:08;;;;;;;;;;;;;;;-4.18;74.98;98265.06;5063350;28;20454;-76
2023/11/28 10:21:35;;;;;;;;;;;;;;;-4.16;75.10;98264.81;5063348;28;19928;-76
2023/11/28 10:24:01;;;;;;;;;;;;;;;-4.13;74.74;98265.22;5066356;28;19971;-76
2023/11/28 10:26:29;;;;;;;;;;;;;;;-4.08;74.13;98282.44;5045325;28;19982;-78
2023/11/28 10:28:56;;;;;;;;;;;;;;;-4.12;73.58;98287.41;5061844;28;19932;-78
2023/11/28 10:31:22;;;;;;;;;;;;;;;-4.18;73.87;98282.91;5062691;28;19928;-77
2023/11/28 10:33:50;;;;;;;;;;;;;;;-4.16;74.47;98283.50;5065191;28;20019;-78
2023/11/28 10:36:16;;;;;;;;;;;;;;;-4.03;74.72;98293.31;5065356;28;20093;-78
2023/11/28 10:38:42;;;;;;;;;;;;;;;-4.02;75.46;98287.72;5063052;28;20249;-78
2023/11/28 10:41:08;;;;;;;;;;;;;;;-4.02;75.67;98293.06;5065706;28;19928;-76
2023/11/28 10:43:36;;;;;;;;;;;;;;;-3.94;75.79;98297.31;5059850;28;19967;-76
2023/11/28 10:46:05;;;;;;;;;;;;;;;-3.85;75.15;98297.88;5064909;28;20326;-76
2023/11/28 10:48:30;;;;;;;;;;;;;;;-3.89;74.15;98313.53;5063379;28;19974;-76
2023/11/28 10:50:56;;;;;;;;;;;;;;;-4.02;74.51;98326.97;5065768;28;19928;-76
2023/11/28 10:53:25;;;;;;;;;;;;;;;-4.17;75.48;98319.25;5062234;28;19978;-76
2023/11/28 10:55:52;;;;;;;;;;;;;;;-4.24;73.49;98334.50;5047719;28;19928;-76
2023/11/28 10:58:19;;;;;;;;;;;;;;;-4.27;71.95;98335.75;5044211;28;20038;-76
2023/11/28 11:00:52;;;;;;;;;;;;;;;-4.24;71.52;98331.84;5066641;28;19928;-76
2023/11/28 11:03:19;;;;;;;;;;;;;;;-4.22;70.88;98365.28;5064698;28;20318;-76
2023/11/28 11:05:45;;;;;;;;;;;;;;;-4.25;70.82;98355.03;5066721;28;20038;-76
2023/11/28 11:08:12;;;;;;;;;;;;;;;-4.24;70.73;98353.19;5063246;28;19933;-76
2023/11/28 11:10:39;;;;;;;;;;;;;;;-4.23;69.35;98362.84;5066156;28;19929;-76
2023/11/28 11:13:17;;;;;;;;;;;;;;;-4.27;69.87;98399.81;5063178;28;20387;-76
2023/11/28 11:15:45;;;;;;;;;;;;;;;-4.31;69.77;98380.72;5064840;28;19928;-76
2023/11/28 11:18:19;;;;;;;;;;;;;;;-4.33;69.82;98387.31;5060705;28;19932;-76
2023/11/28 11:20:45;;;;;;;;;;;;;;;-4.37;69.83;98394.09;5062788;28;19974;-75
2023/11/28 11:23:15;;;;;;;;;;;;;;;-4.43;69.83;98379.78;5067522;28;19929;-77
2023/11/28 11:25:41;;;;;;;;;;;;;;;-4.47;70.11;98399.88;5049367;28;20080;-77
2023/11/28 11:28:07;;;;;;;;;;;;;;;-4.47;70.22;98398.06;5064601;28;19935;-76
2023/11/28 11:30:36;;;;;;;;;;;;;;;-4.49;70.39;98380.59;5066016;28;20025;-76
2023/11/28 11:33:02;;;;;;;;;;;;;;;-4.47;70.67;98402.56;5065008;28;20358;-76
2023/11/28 11:35:31;;;;;;;;;;;;;;;-4.45;70.76;98406.66;5066273;28;20427;-76
2023/11/28 11:37:57;;;;;;;;;;;;;;;-4.46;70.73;98413.03;5046944;28;19936;-76
2023/11/28 11:40:23;;;;;;;;;;;;;;;-4.51;71.26;98420.03;5047681;28;19968;-77
2023/11/28 11:42:49;;;;;;;;;;;;;;;-4.52;71.86;98421.06;5068346;28;20453;-76
2023/11/28 11:45:18;;;;;;;;;;;;;;;-4.55;72.55;98432.97;5068538;28;19932;-77
2023/11/28 11:47:44;;;;;;;;;;;;;;;-4.54;72.39;98439.94;5063392;28;20027;-76
2023/11/28 11:50:10;;;;;;;;;;;;;;;-4.54;72.98;98466.63;5067743;28;19940;-76
2023/11/28 11:52:38;;;;;;;;;;;;;;;-4.54;72.27;98453.28;5070455;28;20206;-77
2023/11/28 11:55:05;;;;;;;;;;;;;;;-4.57;72.45;98445.69;5067398;28;20413;-77
2023/11/28 11:57:31;;;;;;;;;;;;;;;-4.64;72.64;98460.91;5064827;28;19934;-76
2023/11/28 11:59:57;;;;;;;;;;;;;;;-4.71;73.07;98445.72;5068459;28;20376;-77
2023/11/28 12:02:34;;;;;;;;;;;;;;;-4.76;73.84;98469.53;5049094;28;19928;-77
2023/11/28 12:05:00;;;;;;;;;;;;;;;-4.77;74.60;98469.75;5065260;28;19982;-77
2023/11/28 12:07:26;;;;;;;;;;;;;;;-4.80;76.54;98476.31;5061275;28;19959;-76
2023/11/28 12:09:54;;;;;;;;;;;;;;;-4.78;76.08;98505.44;5060945;28;19928;-77
2023/11/28 12:12:19;;;;;;;;;;;;;;;-4.78;75.60;98497.44;5062787;28;20354;-76
2023/11/28 12:14:45;;;;;;;;;;;;;;;-4.78;75.50;98506.28;5063716;28;19932;-78
2023/11/28 12:17:11;;;;;;;;;;;;;;;-4.79;75.27;98503.81;5064347;28;19932;-78
2023/11/28 12:19:37;;;;;;;;;;;;;;;-4.85;75.42;98524.94;5064109;28;20529;-78
2023/11/28 12:22:05;;;;;;;;;;;;;;;-4.96;74.82;98532.75;5045824;28;19968;-76
2023/11/28 12:24:31;;;;;;;;;;;;;;;-5.02;75.30;98553.03;5045736;28;19982;-77
2023/11/28 12:26:59;;;;;;;;;;;;;;;-5.08;75.06;98541.34;5063033;28;19928;-77
2023/11/28 12:29:25;;;;;;;;;;;;;;;-5.16;75.30;98573.50;5064141;28;20398;-77
2023/11/28 12:31:52;;;;;;;;;;;;;;;-5.21;74.91;98544.81;5063630;28;19928;-76
2023/11/28 12:34:20;;;;;;;;;;;;;;;-5.20;74.85;98553.63;5062663;28;20034;-77
2023/11/28 12:36:46;;;;;;;;;;;;;;;-5.24;74.88;98566.53;5064008;28;19934;-77
2023/11/28 12:39:13;;;;;;;;;;;;;;;-5.31;75.07;98584.38;5064250;28;19929;-77
2023/11/28 12:41:40;;;;;;;;;;;;;;;-5.32;75.22;98572.88;5064968;28;20385;-76
2023/11/28 12:44:09;;;;;;;;;;;;;;;-5.29;75.38;98576.97;5046197;28;19955;-76